sensor_id;sensor_type;location;lat;lon;timestamp;P1;durP1;ratioP1;P2;durP2;ratioP2
11671;SDS011;5892;43.412;24.612;2023-05-21T00:00:01;5.43;;;4.20;;
11671;SDS011;5892;43.412;24.612;2023-05-21T00:02:35;6.33;;;4.00;;
11671;SDS011;5892;43.412;24.612;2023-05-21T00:05:02;4.40;;;4.00;;
11671;SDS011;5892;43.412;24.612;2023-05-21T00:07:29;4.90;;;4.40;;
11671;SDS011;5892;43.412;24.612;2023-05-21T00:09:58;5.60;;;4.27;;
11671;SDS011;5892;43.412;24.612;2023-05-21T00:12:25;5.40;;;4.40;;
11671;SDS011;5892;43.412;24.612;2023-05-21T00:14:52;4.67;;;4.27;;
11671;SDS011;5892;43.412;24.612;2023-05-21T00:17:19;9.00;;;4.60;;
11671;SDS011;5892;43.412;24.612;2023-05-21T00:19:46;7.37;;;4.40;;
11671;SDS011;5892;43.412;24.612;2023-05-21T00:22:14;5.10;;;4.10;;
11671;SDS011;5892;43.412;24.612;2023-05-21T00:24:41;5.70;;;4.27;;
11671;SDS011;5892;43.412;24.612;2023-05-21T00:27:10;5.67;;;4.27;;
11671;SDS011;5892;43.412;24.612;2023-05-21T00:29:37;4.97;;;4.23;;
11671;SDS011;5892;43.412;24.612;2023-05-21T00:32:05;5.70;;;4.33;;
11671;SDS011;5892;43.412;24.612;2023-05-21T00:34:32;4.83;;;4.07;;
11671;SDS011;5892;43.412;24.612;2023-05-21T00:36:59;4.97;;;4.10;;
11671;SDS011;5892;43.412;24.612;2023-05-21T00:39:26;5.30;;;4.23;;
11671;SDS011;5892;43.412;24.612;2023-05-21T00:41:53;5.73;;;4.13;;
11671;SDS011;5892;43.412;24.612;2023-05-21T00:44:23;7.90;;;4.80;;
11671;SDS011;5892;43.412;24.612;2023-05-21T00:46:51;8.33;;;4.73;;
11671;SDS011;5892;43.412;24.612;2023-05-21T00:49:18;4.73;;;4.27;;
11671;SDS011;5892;43.412;24.612;2023-05-21T00:51:48;4.83;;;4.37;;
11671;SDS011;5892;43.412;24.612;2023-05-21T00:54:16;5.97;;;4.20;;
11671;SDS011;5892;43.412;24.612;2023-05-21T00:56:43;6.43;;;4.40;;
11671;SDS011;5892;43.412;24.612;2023-05-21T00:59:11;5.67;;;4.13;;
11671;SDS011;5892;43.412;24.612;2023-05-21T01:01:39;4.80;;;3.90;;
11671;SDS011;5892;43.412;24.612;2023-05-21T01:04:07;4.70;;;4.20;;
11671;SDS011;5892;43.412;24.612;2023-05-21T01:06:34;4.77;;;3.87;;
11671;SDS011;5892;43.412;24.612;2023-05-21T01:09:01;6.10;;;4.40;;
11671;SDS011;5892;43.412;24.612;2023-05-21T01:11:33;5.23;;;4.37;;
11671;SDS011;5892;43.412;24.612;2023-05-21T01:14:04;6.73;;;4.53;;
11671;SDS011;5892;43.412;24.612;2023-05-21T01:16:34;5.93;;;4.73;;
11671;SDS011;5892;43.412;24.612;2023-05-21T01:19:04;4.63;;;4.23;;
11671;SDS011;5892;43.412;24.612;2023-05-21T01:21:35;5.03;;;4.20;;
11671;SDS011;5892;43.412;24.612;2023-05-21T01:24:08;6.30;;;4.33;;
11671;SDS011;5892;43.412;24.612;2023-05-21T01:26:35;4.60;;;4.20;;
11671;SDS011;5892;43.412;24.612;2023-05-21T01:29:03;5.03;;;4.40;;
11671;SDS011;5892;43.412;24.612;2023-05-21T01:31:33;6.17;;;4.13;;
11671;SDS011;5892;43.412;24.612;2023-05-21T01:34:07;4.40;;;4.00;;
11671;SDS011;5892;43.412;24.612;2023-05-21T01:36:38;7.57;;;4.50;;
11671;SDS011;5892;43.412;24.612;2023-05-21T01:39:13;7.23;;;4.83;;
11671;SDS011;5892;43.412;24.612;2023-05-21T01:41:44;4.87;;;4.37;;
11671;SDS011;5892;43.412;24.612;2023-05-21T01:44:13;7.00;;;4.10;;
11671;SDS011;5892;43.412;24.612;2023-05-21T01:46:44;4.70;;;4.30;;
11671;SDS011;5892;43.412;24.612;2023-05-21T01:49:10;8.73;;;4.47;;
11671;SDS011;5892;43.412;24.612;2023-05-21T01:51:38;4.47;;;4.03;;
11671;SDS011;5892;43.412;24.612;2023-05-21T01:54:05;6.03;;;4.20;;
11671;SDS011;5892;43.412;24.612;2023-05-21T01:56:37;5.70;;;4.17;;
11671;SDS011;5892;43.412;24.612;2023-05-21T01:59:03;8.37;;;4.50;;
11671;SDS011;5892;43.412;24.612;2023-05-21T02:01:30;5.57;;;4.20;;
11671;SDS011;5892;43.412;24.612;2023-05-21T02:03:57;5.40;;;4.07;;
11671;SDS011;5892;43.412;24.612;2023-05-21T02:06:24;5.37;;;4.03;;
11671;SDS011;5892;43.412;24.612;2023-05-21T02:08:51;6.13;;;3.70;;
11671;SDS011;5892;43.412;24.612;2023-05-21T02:11:18;5.07;;;4.23;;
11671;SDS011;5892;43.412;24.612;2023-05-21T02:13:46;5.23;;;3.80;;
11671;SDS011;5892;43.412;24.612;2023-05-21T02:16:13;6.20;;;4.17;;
11671;SDS011;5892;43.412;24.612;2023-05-21T02:18:40;5.67;;;4.00;;
11671;SDS011;5892;43.412;24.612;2023-05-21T02:21:07;5.30;;;4.10;;
11671;SDS011;5892;43.412;24.612;2023-05-21T02:23:34;6.63;;;3.70;;
11671;SDS011;5892;43.412;24.612;2023-05-21T02:26:02;6.13;;;4.10;;
11671;SDS011;5892;43.412;24.612;2023-05-21T02:28:29;4.40;;;4.00;;
11671;SDS011;5892;43.412;24.612;2023-05-21T02:30:58;6.97;;;4.30;;
11671;SDS011;5892;43.412;24.612;2023-05-21T02:33:25;4.60;;;3.93;;
11671;SDS011;5892;43.412;24.612;2023-05-21T02:35:51;9.27;;;4.20;;
11671;SDS011;5892;43.412;24.612;2023-05-21T02:38:18;4.77;;;3.77;;
11671;SDS011;5892;43.412;24.612;2023-05-21T02:40:47;4.60;;;4.00;;
11671;SDS011;5892;43.412;24.612;2023-05-21T02:43:14;6.27;;;4.20;;
11671;SDS011;5892;43.412;24.612;2023-05-21T02:45:41;5.77;;;3.73;;
11671;SDS011;5892;43.412;24.612;2023-05-21T02:48:09;5.27;;;4.27;;
11671;SDS011;5892;43.412;24.612;2023-05-21T02:50:36;4.40;;;3.93;;
11671;SDS011;5892;43.412;24.612;2023-05-21T02:53:03;6.23;;;4.20;;
11671;SDS011;5892;43.412;24.612;2023-05-21T02:55:30;4.43;;;4.00;;
11671;SDS011;5892;43.412;24.612;2023-05-21T02:57:57;4.47;;;4.00;;
11671;SDS011;5892;43.412;24.612;2023-05-21T03:00:24;9.43;;;4.03;;
11671;SDS011;5892;43.412;24.612;2023-05-21T03:02:50;4.20;;;3.80;;
11671;SDS011;5892;43.412;24.612;2023-05-21T03:05:19;4.93;;;4.00;;
11671;SDS011;5892;43.412;24.612;2023-05-21T03:07:46;6.50;;;3.80;;
11671;SDS011;5892;43.412;24.612;2023-05-21T03:10:13;5.47;;;4.00;;
11671;SDS011;5892;43.412;24.612;2023-05-21T03:12:40;6.67;;;3.97;;
11671;SDS011;5892;43.412;24.612;2023-05-21T03:15:07;4.47;;;3.90;;
11671;SDS011;5892;43.412;24.612;2023-05-21T03:17:35;5.93;;;4.10;;
11671;SDS011;5892;43.412;24.612;2023-05-21T03:20:02;7.87;;;4.23;;
11671;SDS011;5892;43.412;24.612;2023-05-21T03:22:31;5.67;;;3.80;;
11671;SDS011;5892;43.412;24.612;2023-05-21T03:24:58;3.93;;;3.47;;
11671;SDS011;5892;43.412;24.612;2023-05-21T03:27:25;5.63;;;3.83;;
11671;SDS011;5892;43.412;24.612;2023-05-21T03:29:52;10.57;;;4.40;;
11671;SDS011;5892;43.412;24.612;2023-05-21T03:32:20;4.40;;;4.00;;
11671;SDS011;5892;43.412;24.612;2023-05-21T03:34:47;4.47;;;3.83;;
11671;SDS011;5892;43.412;24.612;2023-05-21T03:37:13;8.50;;;4.00;;
11671;SDS011;5892;43.412;24.612;2023-05-21T03:39:42;4.10;;;3.70;;
11671;SDS011;5892;43.412;24.612;2023-05-21T03:42:08;4.20;;;3.80;;
11671;SDS011;5892;43.412;24.612;2023-05-21T03:44:38;6.63;;;4.27;;
11671;SDS011;5892;43.412;24.612;2023-05-21T03:47:05;5.70;;;4.10;;
11671;SDS011;5892;43.412;24.612;2023-05-21T03:49:33;6.33;;;3.90;;
11671;SDS011;5892;43.412;24.612;2023-05-21T03:52:00;4.57;;;3.63;;
11671;SDS011;5892;43.412;24.612;2023-05-21T03:54:27;8.37;;;4.20;;
11671;SDS011;5892;43.412;24.612;2023-05-21T03:56:55;4.67;;;4.10;;
11671;SDS011;5892;43.412;24.612;2023-05-21T03:59:22;6.13;;;4.00;;
11671;SDS011;5892;43.412;24.612;2023-05-21T04:01:49;4.47;;;3.80;;
11671;SDS011;5892;43.412;24.612;2023-05-21T04:04:15;5.00;;;3.90;;
11671;SDS011;5892;43.412;24.612;2023-05-21T04:06:42;6.77;;;4.60;;
11671;SDS011;5892;43.412;24.612;2023-05-21T04:09:09;6.07;;;3.80;;
11671;SDS011;5892;43.412;24.612;2023-05-21T04:11:36;7.00;;;3.50;;
11671;SDS011;5892;43.412;24.612;2023-05-21T04:14:04;6.37;;;3.80;;
11671;SDS011;5892;43.412;24.612;2023-05-21T04:16:31;6.07;;;3.20;;
11671;SDS011;5892;43.412;24.612;2023-05-21T04:18:59;5.57;;;3.30;;
11671;SDS011;5892;43.412;24.612;2023-05-21T04:21:26;4.97;;;3.53;;
11671;SDS011;5892;43.412;24.612;2023-05-21T04:23:52;5.40;;;3.57;;
11671;SDS011;5892;43.412;24.612;2023-05-21T04:26:21;6.17;;;3.77;;
11671;SDS011;5892;43.412;24.612;2023-05-21T04:28:49;4.10;;;3.70;;
11671;SDS011;5892;43.412;24.612;2023-05-21T04:31:20;5.63;;;3.73;;
11671;SDS011;5892;43.412;24.612;2023-05-21T04:33:48;4.77;;;3.70;;
11671;SDS011;5892;43.412;24.612;2023-05-21T04:36:14;7.73;;;3.70;;
11671;SDS011;5892;43.412;24.612;2023-05-21T04:38:42;6.67;;;3.43;;
11671;SDS011;5892;43.412;24.612;2023-05-21T04:41:09;6.07;;;3.37;;
11671;SDS011;5892;43.412;24.612;2023-05-21T04:43:36;6.60;;;3.67;;
11671;SDS011;5892;43.412;24.612;2023-05-21T04:46:02;4.90;;;3.17;;
11671;SDS011;5892;43.412;24.612;2023-05-21T04:48:31;5.80;;;3.30;;
11671;SDS011;5892;43.412;24.612;2023-05-21T04:50:58;5.20;;;3.20;;
11671;SDS011;5892;43.412;24.612;2023-05-21T04:53:25;6.37;;;3.50;;
11671;SDS011;5892;43.412;24.612;2023-05-21T04:55:51;7.30;;;3.33;;
11671;SDS011;5892;43.412;24.612;2023-05-21T04:58:18;4.83;;;3.10;;
11671;SDS011;5892;43.412;24.612;2023-05-21T05:00:45;4.20;;;2.90;;
11671;SDS011;5892;43.412;24.612;2023-05-21T05:03:15;5.60;;;3.30;;
11671;SDS011;5892;43.412;24.612;2023-05-21T05:05:44;5.90;;;3.67;;
11671;SDS011;5892;43.412;24.612;2023-05-21T05:08:11;4.63;;;3.70;;
11671;SDS011;5892;43.412;24.612;2023-05-21T05:10:38;4.40;;;3.70;;
11671;SDS011;5892;43.412;24.612;2023-05-21T05:13:05;7.83;;;3.90;;
11671;SDS011;5892;43.412;24.612;2023-05-21T05:15:34;7.67;;;3.90;;
11671;SDS011;5892;43.412;24.612;2023-05-21T05:18:01;4.60;;;3.83;;
11671;SDS011;5892;43.412;24.612;2023-05-21T05:20:28;5.53;;;3.87;;
11671;SDS011;5892;43.412;24.612;2023-05-21T05:22:56;7.33;;;4.23;;
11671;SDS011;5892;43.412;24.612;2023-05-21T05:25:23;6.93;;;4.47;;
11671;SDS011;5892;43.412;24.612;2023-05-21T05:27:50;7.63;;;4.20;;
11671;SDS011;5892;43.412;24.612;2023-05-21T05:30:17;7.30;;;4.30;;
11671;SDS011;5892;43.412;24.612;2023-05-21T05:32:45;4.60;;;3.80;;
11671;SDS011;5892;43.412;24.612;2023-05-21T05:35:11;4.20;;;3.80;;
11671;SDS011;5892;43.412;24.612;2023-05-21T05:37:38;8.50;;;4.77;;
11671;SDS011;5892;43.412;24.612;2023-05-21T05:40:07;7.53;;;4.77;;
11671;SDS011;5892;43.412;24.612;2023-05-21T05:42:34;5.10;;;4.60;;
11671;SDS011;5892;43.412;24.612;2023-05-21T05:45:01;5.47;;;4.50;;
11671;SDS011;5892;43.412;24.612;2023-05-21T05:47:28;6.23;;;5.63;;
11671;SDS011;5892;43.412;24.612;2023-05-21T05:49:56;5.27;;;4.23;;
11671;SDS011;5892;43.412;24.612;2023-05-21T05:52:23;5.77;;;4.40;;
11671;SDS011;5892;43.412;24.612;2023-05-21T05:54:52;5.33;;;4.00;;
11671;SDS011;5892;43.412;24.612;2023-05-21T05:57:20;5.13;;;4.03;;
11671;SDS011;5892;43.412;24.612;2023-05-21T05:59:47;5.23;;;3.80;;
11671;SDS011;5892;43.412;24.612;2023-05-21T06:02:14;5.67;;;4.20;;
11671;SDS011;5892;43.412;24.612;2023-05-21T06:04:41;5.97;;;4.10;;
11671;SDS011;5892;43.412;24.612;2023-05-21T06:07:08;5.00;;;4.50;;
11671;SDS011;5892;43.412;24.612;2023-05-21T06:09:35;6.10;;;4.30;;
11671;SDS011;5892;43.412;24.612;2023-05-21T06:12:03;6.60;;;4.37;;
11671;SDS011;5892;43.412;24.612;2023-05-21T06:14:32;6.73;;;4.70;;
11671;SDS011;5892;43.412;24.612;2023-05-21T06:16:59;4.77;;;4.20;;
11671;SDS011;5892;43.412;24.612;2023-05-21T06:19:25;9.10;;;4.33;;
11671;SDS011;5892;43.412;24.612;2023-05-21T06:21:52;4.97;;;4.47;;
11671;SDS011;5892;43.412;24.612;2023-05-21T06:24:19;6.97;;;5.10;;
11671;SDS011;5892;43.412;24.612;2023-05-21T06:26:46;7.97;;;4.53;;
11671;SDS011;5892;43.412;24.612;2023-05-21T06:29:13;7.20;;;4.90;;
11671;SDS011;5892;43.412;24.612;2023-05-21T06:31:42;5.17;;;4.67;;
11671;SDS011;5892;43.412;24.612;2023-05-21T06:34:09;8.37;;;5.70;;
11671;SDS011;5892;43.412;24.612;2023-05-21T06:36:36;7.10;;;5.27;;
11671;SDS011;5892;43.412;24.612;2023-05-21T06:39:03;6.17;;;5.47;;
11671;SDS011;5892;43.412;24.612;2023-05-21T06:41:30;6.63;;;4.93;;
11671;SDS011;5892;43.412;24.612;2023-05-21T06:43:57;6.83;;;5.13;;
11671;SDS011;5892;43.412;24.612;2023-05-21T06:46:24;8.43;;;5.03;;
11671;SDS011;5892;43.412;24.612;2023-05-21T06:48:52;6.70;;;5.40;;
11671;SDS011;5892;43.412;24.612;2023-05-21T06:51:21;6.50;;;5.20;;
11671;SDS011;5892;43.412;24.612;2023-05-21T06:53:48;8.53;;;5.30;;
11671;SDS011;5892;43.412;24.612;2023-05-21T06:56:15;7.00;;;4.43;;
11671;SDS011;5892;43.412;24.612;2023-05-21T06:58:41;7.77;;;4.80;;
11671;SDS011;5892;43.412;24.612;2023-05-21T07:01:08;6.00;;;5.10;;
11671;SDS011;5892;43.412;24.612;2023-05-21T07:03:35;7.23;;;5.37;;
11671;SDS011;5892;43.412;24.612;2023-05-21T07:06:04;6.20;;;5.43;;
11671;SDS011;5892;43.412;24.612;2023-05-21T07:08:31;5.27;;;4.77;;
11671;SDS011;5892;43.412;24.612;2023-05-21T07:10:58;9.03;;;5.37;;
11671;SDS011;5892;43.412;24.612;2023-05-21T07:13:25;9.20;;;6.00;;
11671;SDS011;5892;43.412;24.612;2023-05-21T07:15:52;8.20;;;6.00;;
11671;SDS011;5892;43.412;24.612;2023-05-21T07:18:19;6.30;;;5.60;;
11671;SDS011;5892;43.412;24.612;2023-05-21T07:20:46;6.37;;;5.47;;
11671;SDS011;5892;43.412;24.612;2023-05-21T07:23:14;6.90;;;5.50;;
11671;SDS011;5892;43.412;24.612;2023-05-21T07:25:41;8.83;;;5.37;;
11671;SDS011;5892;43.412;24.612;2023-05-21T07:28:08;7.90;;;5.47;;
11671;SDS011;5892;43.412;24.612;2023-05-21T07:30:35;7.57;;;5.77;;
11671;SDS011;5892;43.412;24.612;2023-05-21T07:33:02;7.53;;;5.33;;
11671;SDS011;5892;43.412;24.612;2023-05-21T07:35:30;7.77;;;5.67;;
11671;SDS011;5892;43.412;24.612;2023-05-21T07:37:57;10.10;;;5.37;;
11671;SDS011;5892;43.412;24.612;2023-05-21T07:40:25;9.27;;;5.53;;
11671;SDS011;5892;43.412;24.612;2023-05-21T07:42:52;7.00;;;5.77;;
11671;SDS011;5892;43.412;24.612;2023-05-21T07:45:20;5.83;;;5.23;;
11671;SDS011;5892;43.412;24.612;2023-05-21T07:47:49;7.30;;;5.27;;
11671;SDS011;5892;43.412;24.612;2023-05-21T07:50:16;9.07;;;5.07;;
11671;SDS011;5892;43.412;24.612;2023-05-21T07:52:43;6.80;;;5.20;;
11671;SDS011;5892;43.412;24.612;2023-05-21T07:55:10;8.00;;;5.80;;
11671;SDS011;5892;43.412;24.612;2023-05-21T07:57:38;6.83;;;4.90;;
11671;SDS011;5892;43.412;24.612;2023-05-21T08:00:06;6.40;;;5.07;;
11671;SDS011;5892;43.412;24.612;2023-05-21T08:02:35;7.97;;;5.20;;
11671;SDS011;5892;43.412;24.612;2023-05-21T08:05:02;9.37;;;5.43;;
11671;SDS011;5892;43.412;24.612;2023-05-21T08:07:29;7.30;;;5.30;;
11671;SDS011;5892;43.412;24.612;2023-05-21T08:09:56;6.07;;;5.30;;
11671;SDS011;5892;43.412;24.612;2023-05-21T08:12:23;5.80;;;5.00;;
11671;SDS011;5892;43.412;24.612;2023-05-21T08:14:51;6.33;;;4.87;;
11671;SDS011;5892;43.412;24.612;2023-05-21T08:17:18;6.87;;;5.20;;
11671;SDS011;5892;43.412;24.612;2023-05-21T08:19:45;7.10;;;4.83;;
11671;SDS011;5892;43.412;24.612;2023-05-21T08:22:14;7.00;;;5.10;;
11671;SDS011;5892;43.412;24.612;2023-05-21T08:24:42;6.20;;;4.90;;
11671;SDS011;5892;43.412;24.612;2023-05-21T08:27:09;7.87;;;4.73;;
11671;SDS011;5892;43.412;24.612;2023-05-21T08:29:35;5.47;;;4.73;;
11671;SDS011;5892;43.412;24.612;2023-05-21T08:32:04;10.03;;;5.57;;
11671;SDS011;5892;43.412;24.612;2023-05-21T08:34:33;7.20;;;5.13;;
11671;SDS011;5892;43.412;24.612;2023-05-21T08:37:00;5.90;;;4.90;;
11671;SDS011;5892;43.412;24.612;2023-05-21T08:39:27;6.10;;;4.90;;
11671;SDS011;5892;43.412;24.612;2023-05-21T08:41:55;8.43;;;5.27;;
11671;SDS011;5892;43.412;24.612;2023-05-21T08:44:34;6.93;;;4.70;;
11671;SDS011;5892;43.412;24.612;2023-05-21T08:47:09;10.37;;;4.87;;
11671;SDS011;5892;43.412;24.612;2023-05-21T08:49:41;9.87;;;5.30;;
11671;SDS011;5892;43.412;24.612;2023-05-21T08:52:10;6.90;;;5.37;;
11671;SDS011;5892;43.412;24.612;2023-05-21T08:54:40;6.80;;;4.70;;
11671;SDS011;5892;43.412;24.612;2023-05-21T08:57:10;6.53;;;5.00;;
11671;SDS011;5892;43.412;24.612;2023-05-21T08:59:40;7.13;;;5.00;;
11671;SDS011;5892;43.412;24.612;2023-05-21T09:02:10;7.43;;;5.07;;
11671;SDS011;5892;43.412;24.612;2023-05-21T09:04:38;7.07;;;4.53;;
11671;SDS011;5892;43.412;24.612;2023-05-21T09:07:06;6.87;;;4.90;;
11671;SDS011;5892;43.412;24.612;2023-05-21T09:09:37;5.00;;;4.50;;
11671;SDS011;5892;43.412;24.612;2023-05-21T09:12:09;5.40;;;4.70;;
11671;SDS011;5892;43.412;24.612;2023-05-21T09:14:36;5.80;;;4.90;;
11671;SDS011;5892;43.412;24.612;2023-05-21T09:17:04;7.77;;;4.70;;
11671;SDS011;5892;43.412;24.612;2023-05-21T09:19:32;5.80;;;4.33;;
11671;SDS011;5892;43.412;24.612;2023-05-21T09:22:02;8.43;;;4.37;;
11671;SDS011;5892;43.412;24.612;2023-05-21T09:24:30;10.50;;;4.40;;
11671;SDS011;5892;43.412;24.612;2023-05-21T09:26:57;5.53;;;4.30;;
11671;SDS011;5892;43.412;24.612;2023-05-21T09:29:25;5.83;;;4.40;;
11671;SDS011;5892;43.412;24.612;2023-05-21T09:31:52;6.20;;;4.47;;
11671;SDS011;5892;43.412;24.612;2023-05-21T09:34:19;8.23;;;4.40;;
11671;SDS011;5892;43.412;24.612;2023-05-21T09:36:48;5.53;;;4.80;;
11671;SDS011;5892;43.412;24.612;2023-05-21T09:39:26;6.63;;;4.30;;
11671;SDS011;5892;43.412;24.612;2023-05-21T09:41:55;6.70;;;4.80;;
11671;SDS011;5892;43.412;24.612;2023-05-21T09:44:22;6.63;;;4.80;;
11671;SDS011;5892;43.412;24.612;2023-05-21T09:46:49;7.83;;;4.70;;
11671;SDS011;5892;43.412;24.612;2023-05-21T09:49:21;6.37;;;4.47;;
11671;SDS011;5892;43.412;24.612;2023-05-21T09:51:55;8.03;;;4.93;;
11671;SDS011;5892;43.412;24.612;2023-05-21T09:54:22;6.87;;;4.70;;
11671;SDS011;5892;43.412;24.612;2023-05-21T09:56:50;7.43;;;4.53;;
11671;SDS011;5892;43.412;24.612;2023-05-21T09:59:17;6.73;;;4.60;;
11671;SDS011;5892;43.412;24.612;2023-05-21T10:01:44;5.17;;;4.00;;
11671;SDS011;5892;43.412;24.612;2023-05-21T10:04:11;4.77;;;3.97;;
11671;SDS011;5892;43.412;24.612;2023-05-21T10:06:40;7.03;;;4.20;;
11671;SDS011;5892;43.412;24.612;2023-05-21T10:09:10;5.63;;;4.43;;
11671;SDS011;5892;43.412;24.612;2023-05-21T10:11:40;6.13;;;4.13;;
11671;SDS011;5892;43.412;24.612;2023-05-21T10:14:15;7.13;;;4.40;;
11671;SDS011;5892;43.412;24.612;2023-05-21T10:16:45;7.33;;;4.40;;
11671;SDS011;5892;43.412;24.612;2023-05-21T10:19:13;5.93;;;4.27;;
11671;SDS011;5892;43.412;24.612;2023-05-21T10:21:41;6.37;;;4.00;;
11671;SDS011;5892;43.412;24.612;2023-05-21T10:24:10;5.70;;;3.80;;
11671;SDS011;5892;43.412;24.612;2023-05-21T10:26:38;4.67;;;3.77;;
11671;SDS011;5892;43.412;24.612;2023-05-21T10:29:07;6.90;;;4.10;;
11671;SDS011;5892;43.412;24.612;2023-05-21T10:31:35;5.73;;;4.10;;
11671;SDS011;5892;43.412;24.612;2023-05-21T10:34:04;5.37;;;4.47;;
11671;SDS011;5892;43.412;24.612;2023-05-21T10:36:31;4.07;;;3.67;;
11671;SDS011;5892;43.412;24.612;2023-05-21T10:38:59;4.90;;;4.40;;
11671;SDS011;5892;43.412;24.612;2023-05-21T10:41:30;7.07;;;4.37;;
11671;SDS011;5892;43.412;24.612;2023-05-21T10:44:08;9.93;;;4.00;;
11671;SDS011;5892;43.412;24.612;2023-05-21T10:46:55;9.03;;;5.07;;
11671;SDS011;5892;43.412;24.612;2023-05-21T10:49:45;5.27;;;4.30;;
11671;SDS011;5892;43.412;24.612;2023-05-21T10:52:38;7.23;;;5.60;;
11671;SDS011;5892;43.412;24.612;2023-05-21T10:55:28;5.60;;;4.47;;
11671;SDS011;5892;43.412;24.612;2023-05-21T10:58:15;5.10;;;4.60;;
11671;SDS011;5892;43.412;24.612;2023-05-21T11:01:02;4.90;;;4.30;;
11671;SDS011;5892;43.412;24.612;2023-05-21T11:03:29;6.20;;;4.77;;
11671;SDS011;5892;43.412;24.612;2023-05-21T11:05:57;6.13;;;4.33;;
11671;SDS011;5892;43.412;24.612;2023-05-21T11:08:28;6.07;;;4.80;;
11671;SDS011;5892;43.412;24.612;2023-05-21T11:10:57;7.03;;;4.70;;
11671;SDS011;5892;43.412;24.612;2023-05-21T11:13:27;6.13;;;4.73;;
11671;SDS011;5892;43.412;24.612;2023-05-21T11:16:13;8.07;;;4.50;;
11671;SDS011;5892;43.412;24.612;2023-05-21T11:18:56;8.33;;;4.83;;
11671;SDS011;5892;43.412;24.612;2023-05-21T11:21:29;6.33;;;4.83;;
11671;SDS011;5892;43.412;24.612;2023-05-21T11:24:02;7.03;;;4.70;;
11671;SDS011;5892;43.412;24.612;2023-05-21T11:32:20;8.10;;;4.73;;
11671;SDS011;5892;43.412;24.612;2023-05-21T11:34:48;5.50;;;4.87;;
11671;SDS011;5892;43.412;24.612;2023-05-21T11:40:15;9.67;;;4.87;;
11671;SDS011;5892;43.412;24.612;2023-05-21T11:42:44;9.37;;;4.60;;
11671;SDS011;5892;43.412;24.612;2023-05-21T11:45:17;8.30;;;4.53;;
11671;SDS011;5892;43.412;24.612;2023-05-21T11:47:45;6.57;;;4.77;;
11671;SDS011;5892;43.412;24.612;2023-05-21T11:50:12;5.63;;;4.43;;
11671;SDS011;5892;43.412;24.612;2023-05-21T11:52:40;6.10;;;4.30;;
11671;SDS011;5892;43.412;24.612;2023-05-21T11:55:07;5.17;;;4.57;;
11671;SDS011;5892;43.412;24.612;2023-05-21T11:57:36;9.10;;;4.57;;
11671;SDS011;5892;43.412;24.612;2023-05-21T12:00:11;9.93;;;4.60;;
11671;SDS011;5892;43.412;24.612;2023-05-21T12:02:44;4.30;;;3.90;;
11671;SDS011;5892;43.412;24.612;2023-05-21T12:05:12;6.87;;;4.60;;
11671;SDS011;5892;43.412;24.612;2023-05-21T12:07:52;5.77;;;4.30;;
11671;SDS011;5892;43.412;24.612;2023-05-21T12:10:54;7.60;;;4.40;;
11671;SDS011;5892;43.412;24.612;2023-05-21T12:13:41;7.53;;;4.30;;
11671;SDS011;5892;43.412;24.612;2023-05-21T12:16:08;4.83;;;4.23;;
11671;SDS011;5892;43.412;24.612;2023-05-21T12:18:36;8.07;;;4.67;;
11671;SDS011;5892;43.412;24.612;2023-05-21T12:21:04;7.40;;;4.27;;
11671;SDS011;5892;43.412;24.612;2023-05-21T12:23:31;6.20;;;4.47;;
11671;SDS011;5892;43.412;24.612;2023-05-21T12:25:57;6.10;;;4.20;;
11671;SDS011;5892;43.412;24.612;2023-05-21T12:28:24;5.47;;;4.20;;
11671;SDS011;5892;43.412;24.612;2023-05-21T12:30:51;5.83;;;4.30;;
11671;SDS011;5892;43.412;24.612;2023-05-21T12:33:18;6.50;;;4.47;;
11671;SDS011;5892;43.412;24.612;2023-05-21T12:35:47;4.63;;;4.13;;
11671;SDS011;5892;43.412;24.612;2023-05-21T12:38:16;8.53;;;4.60;;
11671;SDS011;5892;43.412;24.612;2023-05-21T12:40:43;4.47;;;3.97;;
11671;SDS011;5892;43.412;24.612;2023-05-21T12:43:10;5.90;;;4.23;;
11671;SDS011;5892;43.412;24.612;2023-05-21T12:45:37;10.47;;;4.60;;
11671;SDS011;5892;43.412;24.612;2023-05-21T12:48:04;9.20;;;4.80;;
11671;SDS011;5892;43.412;24.612;2023-05-21T12:50:31;5.53;;;4.10;;
11671;SDS011;5892;43.412;24.612;2023-05-21T12:53:00;5.13;;;4.30;;
11671;SDS011;5892;43.412;24.612;2023-05-21T12:55:27;6.00;;;4.00;;
11671;SDS011;5892;43.412;24.612;2023-05-21T12:58:04;8.03;;;4.50;;
11671;SDS011;5892;43.412;24.612;2023-05-21T13:00:32;9.37;;;4.10;;
11671;SDS011;5892;43.412;24.612;2023-05-21T13:02:59;5.23;;;4.10;;
11671;SDS011;5892;43.412;24.612;2023-05-21T13:05:38;5.40;;;4.00;;
11671;SDS011;5892;43.412;24.612;2023-05-21T13:08:09;4.83;;;4.20;;
11671;SDS011;5892;43.412;24.612;2023-05-21T13:10:38;5.43;;;4.03;;
11671;SDS011;5892;43.412;24.612;2023-05-21T13:13:05;4.90;;;4.30;;
11671;SDS011;5892;43.412;24.612;2023-05-21T13:15:31;4.27;;;3.87;;
11671;SDS011;5892;43.412;24.612;2023-05-21T13:17:58;5.07;;;3.73;;
11671;SDS011;5892;43.412;24.612;2023-05-21T13:20:26;4.40;;;4.00;;
11671;SDS011;5892;43.412;24.612;2023-05-21T13:22:53;5.00;;;4.00;;
11671;SDS011;5892;43.412;24.612;2023-05-21T13:25:26;4.27;;;3.60;;
11671;SDS011;5892;43.412;24.612;2023-05-21T13:27:53;5.23;;;3.80;;
11671;SDS011;5892;43.412;24.612;2023-05-21T13:30:20;6.10;;;4.03;;
11671;SDS011;5892;43.412;24.612;2023-05-21T13:32:47;6.63;;;4.03;;
11671;SDS011;5892;43.412;24.612;2023-05-21T13:35:16;6.10;;;3.47;;
11671;SDS011;5892;43.412;24.612;2023-05-21T13:37:43;4.87;;;3.77;;
11671;SDS011;5892;43.412;24.612;2023-05-21T13:40:10;5.17;;;3.73;;
11671;SDS011;5892;43.412;24.612;2023-05-21T13:42:41;5.23;;;4.07;;
11671;SDS011;5892;43.412;24.612;2023-05-21T13:45:08;4.90;;;3.50;;
11671;SDS011;5892;43.412;24.612;2023-05-21T13:47:37;6.10;;;3.67;;
11671;SDS011;5892;43.412;24.612;2023-05-21T13:50:04;4.90;;;3.70;;
11671;SDS011;5892;43.412;24.612;2023-05-21T13:52:32;6.10;;;3.93;;
11671;SDS011;5892;43.412;24.612;2023-05-21T13:54:59;9.20;;;4.20;;
11671;SDS011;5892;43.412;24.612;2023-05-21T13:57:26;4.57;;;3.30;;
11671;SDS011;5892;43.412;24.612;2023-05-21T13:59:56;5.23;;;3.43;;
11671;SDS011;5892;43.412;24.612;2023-05-21T14:02:23;4.93;;;3.83;;
11671;SDS011;5892;43.412;24.612;2023-05-21T14:04:50;5.40;;;3.70;;
11671;SDS011;5892;43.412;24.612;2023-05-21T14:07:18;5.50;;;3.60;;
11671;SDS011;5892;43.412;24.612;2023-05-21T14:09:46;4.73;;;3.53;;
11671;SDS011;5892;43.412;24.612;2023-05-21T14:12:13;7.67;;;3.73;;
11671;SDS011;5892;43.412;24.612;2023-05-21T14:14:40;7.57;;;3.60;;
11671;SDS011;5892;43.412;24.612;2023-05-21T14:17:08;5.00;;;3.63;;
11671;SDS011;5892;43.412;24.612;2023-05-21T14:19:35;7.73;;;3.83;;
11671;SDS011;5892;43.412;24.612;2023-05-21T14:22:02;7.63;;;3.50;;
11671;SDS011;5892;43.412;24.612;2023-05-21T14:24:30;4.33;;;3.20;;
11671;SDS011;5892;43.412;24.612;2023-05-21T14:26:57;8.77;;;3.67;;
11671;SDS011;5892;43.412;24.612;2023-05-21T14:29:24;4.30;;;3.00;;
11671;SDS011;5892;43.412;24.612;2023-05-21T14:31:51;6.30;;;3.20;;
11671;SDS011;5892;43.412;24.612;2023-05-21T14:34:19;6.17;;;2.83;;
11671;SDS011;5892;43.412;24.612;2023-05-21T14:36:46;3.57;;;3.10;;
11671;SDS011;5892;43.412;24.612;2023-05-21T14:39:13;5.03;;;3.43;;
11671;SDS011;5892;43.412;24.612;2023-05-21T14:41:41;5.47;;;3.30;;
11671;SDS011;5892;43.412;24.612;2023-05-21T14:44:08;3.60;;;3.10;;
11671;SDS011;5892;43.412;24.612;2023-05-21T14:46:35;4.77;;;3.20;;
11671;SDS011;5892;43.412;24.612;2023-05-21T14:49:01;4.83;;;3.00;;
11671;SDS011;5892;43.412;24.612;2023-05-21T14:51:30;5.63;;;3.27;;
11671;SDS011;5892;43.412;24.612;2023-05-21T14:53:57;5.40;;;3.23;;
11671;SDS011;5892;43.412;24.612;2023-05-21T14:56:29;5.90;;;3.30;;
11671;SDS011;5892;43.412;24.612;2023-05-21T14:58:57;4.77;;;3.43;;
11671;SDS011;5892;43.412;24.612;2023-05-21T15:01:24;8.23;;;3.70;;
11671;SDS011;5892;43.412;24.612;2023-05-21T15:03:51;4.17;;;3.60;;